sensor_id;sensor_type;location;lat;lon;timestamp;P1;durP1;ratioP1;P2;durP2;ratioP2
55031;SDS011;40928;51.076;7.950;2022-08-19T00:02:04;22.95;;;15.32;;
55031;SDS011;40928;51.076;7.950;2022-08-19T00:04:31;20.13;;;14.30;;
55031;SDS011;40928;51.076;7.950;2022-08-19T00:07:01;21.88;;;15.27;;
55031;SDS011;40928;51.076;7.950;2022-08-19T00:09:28;22.08;;;15.25;;
55031;SDS011;40928;51.076;7.950;2022-08-19T00:11:54;21.15;;;14.93;;
55031;SDS011;40928;51.076;7.950;2022-08-19T00:14:21;21.92;;;15.65;;
55031;SDS011;40928;51.076;7.950;2022-08-19T00:16:49;21.70;;;14.15;;
55031;SDS011;40928;51.076;7.950;2022-08-19T00:19:16;20.40;;;14.95;;
55031;SDS011;40928;51.076;7.950;2022-08-19T00:21:42;17.00;;;12.82;;
55031;SDS011;40928;51.076;7.950;2022-08-19T00:24:08;20.92;;;13.38;;
55031;SDS011;40928;51.076;7.950;2022-08-19T00:26:36;17.60;;;13.02;;
55031;SDS011;40928;51.076;7.950;2022-08-19T00:29:03;17.30;;;13.43;;
55031;SDS011;40928;51.076;7.950;2022-08-19T00:31:29;20.40;;;13.85;;
55031;SDS011;40928;51.076;7.950;2022-08-19T00:33:56;17.35;;;13.00;;
55031;SDS011;40928;51.076;7.950;2022-08-19T00:36:22;17.48;;;12.32;;
55031;SDS011;40928;51.076;7.950;2022-08-19T00:38:47;18.25;;;13.40;;
55031;SDS011;40928;51.076;7.950;2022-08-19T00:41:13;18.58;;;13.32;;
55031;SDS011;40928;51.076;7.950;2022-08-19T00:43:40;18.85;;;13.88;;
55031;SDS011;40928;51.076;7.950;2022-08-19T00:46:06;21.02;;;13.70;;
55031;SDS011;40928;51.076;7.950;2022-08-19T00:48:32;22.13;;;14.27;;
55031;SDS011;40928;51.076;7.950;2022-08-19T00:50:59;18.98;;;13.52;;
55031;SDS011;40928;51.076;7.950;2022-08-19T00:53:26;24.63;;;15.00;;
55031;SDS011;40928;51.076;7.950;2022-08-19T00:55:54;24.42;;;15.13;;
55031;SDS011;40928;51.076;7.950;2022-08-19T00:58:24;19.67;;;13.80;;
55031;SDS011;40928;51.076;7.950;2022-08-19T01:00:54;22.95;;;15.32;;
55031;SDS011;40928;51.076;7.950;2022-08-19T01:03:20;26.15;;;16.20;;
55031;SDS011;40928;51.076;7.950;2022-08-19T01:05:46;20.75;;;15.13;;
55031;SDS011;40928;51.076;7.950;2022-08-19T01:08:14;20.75;;;14.90;;
55031;SDS011;40928;51.076;7.950;2022-08-19T01:10:43;22.13;;;15.05;;
55031;SDS011;40928;51.076;7.950;2022-08-19T01:13:13;19.08;;;14.73;;
55031;SDS011;40928;51.076;7.950;2022-08-19T01:15:42;22.63;;;16.38;;
55031;SDS011;40928;51.076;7.950;2022-08-19T01:18:19;20.27;;;15.35;;
55031;SDS011;40928;51.076;7.950;2022-08-19T01:20:46;23.85;;;15.50;;
55031;SDS011;40928;51.076;7.950;2022-08-19T01:23:12;20.05;;;15.20;;
55031;SDS011;40928;51.076;7.950;2022-08-19T01:25:41;19.08;;;13.93;;
55031;SDS011;40928;51.076;7.950;2022-08-19T01:28:15;19.70;;;13.82;;
55031;SDS011;40928;51.076;7.950;2022-08-19T01:30:42;15.25;;;11.63;;
55031;SDS011;40928;51.076;7.950;2022-08-19T01:33:08;17.63;;;13.20;;
55031;SDS011;40928;51.076;7.950;2022-08-19T01:35:34;18.85;;;13.05;;
55031;SDS011;40928;51.076;7.950;2022-08-19T01:38:02;15.88;;;11.88;;
55031;SDS011;40928;51.076;7.950;2022-08-19T01:40:34;16.60;;;12.27;;
55031;SDS011;40928;51.076;7.950;2022-08-19T01:43:02;16.20;;;11.85;;
55031;SDS011;40928;51.076;7.950;2022-08-19T01:45:28;15.48;;;11.80;;
55031;SDS011;40928;51.076;7.950;2022-08-19T01:47:55;17.20;;;11.30;;
55031;SDS011;40928;51.076;7.950;2022-08-19T01:50:22;16.35;;;12.68;;
55031;SDS011;40928;51.076;7.950;2022-08-19T01:52:47;18.05;;;13.13;;
55031;SDS011;40928;51.076;7.950;2022-08-19T01:55:15;16.33;;;11.82;;
55031;SDS011;40928;51.076;7.950;2022-08-19T01:57:44;16.25;;;11.52;;
55031;SDS011;40928;51.076;7.950;2022-08-19T02:00:18;16.00;;;11.93;;
55031;SDS011;40928;51.076;7.950;2022-08-19T02:02:45;13.05;;;10.50;;
55031;SDS011;40928;51.076;7.950;2022-08-19T02:05:11;16.58;;;11.68;;
55031;SDS011;40928;51.076;7.950;2022-08-19T02:07:38;14.18;;;10.25;;
55031;SDS011;40928;51.076;7.950;2022-08-19T02:10:07;14.68;;;11.07;;
55031;SDS011;40928;51.076;7.950;2022-08-19T02:12:35;16.25;;;11.25;;
55031;SDS011;40928;51.076;7.950;2022-08-19T02:15:01;17.10;;;11.40;;
55031;SDS011;40928;51.076;7.950;2022-08-19T02:17:28;14.57;;;10.65;;
55031;SDS011;40928;51.076;7.950;2022-08-19T02:19:57;17.50;;;10.85;;
55031;SDS011;40928;51.076;7.950;2022-08-19T02:22:24;15.57;;;10.90;;
55031;SDS011;40928;51.076;7.950;2022-08-19T02:24:53;17.63;;;11.55;;
55031;SDS011;40928;51.076;7.950;2022-08-19T02:27:19;14.73;;;10.55;;
55031;SDS011;40928;51.076;7.950;2022-08-19T02:29:48;18.70;;;11.23;;
55031;SDS011;40928;51.076;7.950;2022-08-19T02:32:15;13.15;;;9.77;;
55031;SDS011;40928;51.076;7.950;2022-08-19T02:34:41;13.10;;;9.52;;
55031;SDS011;40928;51.076;7.950;2022-08-19T02:37:07;14.48;;;10.00;;
55031;SDS011;40928;51.076;7.950;2022-08-19T02:39:56;13.40;;;9.63;;
55031;SDS011;40928;51.076;7.950;2022-08-19T02:42:21;15.32;;;10.98;;
55031;SDS011;40928;51.076;7.950;2022-08-19T02:44:47;14.98;;;9.38;;
55031;SDS011;40928;51.076;7.950;2022-08-19T02:47:12;13.57;;;10.43;;
55031;SDS011;40928;51.076;7.950;2022-08-19T02:49:40;13.43;;;9.68;;
55031;SDS011;40928;51.076;7.950;2022-08-19T02:52:06;14.25;;;10.82;;
55031;SDS011;40928;51.076;7.950;2022-08-19T02:54:31;13.85;;;10.52;;
55031;SDS011;40928;51.076;7.950;2022-08-19T02:56:57;16.52;;;10.40;;
55031;SDS011;40928;51.076;7.950;2022-08-19T02:59:23;15.38;;;10.85;;
55031;SDS011;40928;51.076;7.950;2022-08-19T03:01:50;13.35;;;9.65;;
55031;SDS011;40928;51.076;7.950;2022-08-19T03:04:16;14.25;;;10.25;;
55031;SDS011;40928;51.076;7.950;2022-08-19T03:06:43;14.93;;;9.70;;
55031;SDS011;40928;51.076;7.950;2022-08-19T03:09:11;17.48;;;10.65;;
55031;SDS011;40928;51.076;7.950;2022-08-19T03:11:37;12.95;;;9.40;;
55031;SDS011;40928;51.076;7.950;2022-08-19T03:14:03;13.73;;;9.90;;
55031;SDS011;40928;51.076;7.950;2022-08-19T03:16:32;13.23;;;9.05;;
55031;SDS011;40928;51.076;7.950;2022-08-19T03:19:00;11.80;;;8.80;;
55031;SDS011;40928;51.076;7.950;2022-08-19T03:21:27;13.18;;;8.60;;
55031;SDS011;40928;51.076;7.950;2022-08-19T03:23:56;14.27;;;9.82;;
55031;SDS011;40928;51.076;7.950;2022-08-19T03:26:23;12.52;;;8.65;;
55031;SDS011;40928;51.076;7.950;2022-08-19T03:28:48;16.02;;;9.93;;
55031;SDS011;40928;51.076;7.950;2022-08-19T03:31:15;11.85;;;8.43;;
55031;SDS011;40928;51.076;7.950;2022-08-19T03:33:43;13.15;;;9.35;;
55031;SDS011;40928;51.076;7.950;2022-08-19T03:38:36;13.10;;;9.25;;
55031;SDS011;40928;51.076;7.950;2022-08-19T03:41:04;13.75;;;10.48;;
55031;SDS011;40928;51.076;7.950;2022-08-19T03:43:32;16.60;;;10.57;;
55031;SDS011;40928;51.076;7.950;2022-08-19T03:46:06;16.15;;;9.90;;
55031;SDS011;40928;51.076;7.950;2022-08-19T03:48:33;16.13;;;10.93;;
55031;SDS011;40928;51.076;7.950;2022-08-19T03:51:00;15.45;;;10.27;;
55031;SDS011;40928;51.076;7.950;2022-08-19T03:53:27;13.80;;;9.93;;
55031;SDS011;40928;51.076;7.950;2022-08-19T03:55:54;13.25;;;9.05;;
55031;SDS011;40928;51.076;7.950;2022-08-19T03:58:20;13.82;;;9.85;;
55031;SDS011;40928;51.076;7.950;2022-08-19T04:00:47;11.55;;;9.05;;
55031;SDS011;40928;51.076;7.950;2022-08-19T04:03:12;14.27;;;9.18;;
55031;SDS011;40928;51.076;7.950;2022-08-19T04:05:38;11.80;;;9.02;;
55031;SDS011;40928;51.076;7.950;2022-08-19T04:08:04;13.95;;;9.63;;
55031;SDS011;40928;51.076;7.950;2022-08-19T04:10:31;14.13;;;9.68;;
55031;SDS011;40928;51.076;7.950;2022-08-19T04:13:01;13.50;;;9.18;;
55031;SDS011;40928;51.076;7.950;2022-08-19T04:15:27;11.50;;;8.23;;
55031;SDS011;40928;51.076;7.950;2022-08-19T04:17:56;13.77;;;8.93;;
55031;SDS011;40928;51.076;7.950;2022-08-19T04:20:22;11.70;;;7.85;;
55031;SDS011;40928;51.076;7.950;2022-08-19T04:22:47;13.82;;;9.07;;
55031;SDS011;40928;51.076;7.950;2022-08-19T04:25:12;13.90;;;9.77;;
55031;SDS011;40928;51.076;7.950;2022-08-19T04:27:38;12.27;;;8.88;;
55031;SDS011;40928;51.076;7.950;2022-08-19T04:30:04;16.42;;;11.05;;
55031;SDS011;40928;51.076;7.950;2022-08-19T04:32:29;15.18;;;10.52;;
55031;SDS011;40928;51.076;7.950;2022-08-19T04:34:57;19.92;;;13.00;;
55031;SDS011;40928;51.076;7.950;2022-08-19T04:37:24;22.52;;;13.70;;
55031;SDS011;40928;51.076;7.950;2022-08-19T04:39:52;19.20;;;11.88;;
55031;SDS011;40928;51.076;7.950;2022-08-19T04:45:08;20.10;;;13.00;;
55031;SDS011;40928;51.076;7.950;2022-08-19T04:47:36;24.05;;;13.43;;
55031;SDS011;40928;51.076;7.950;2022-08-19T04:50:03;15.77;;;10.85;;
55031;SDS011;40928;51.076;7.950;2022-08-19T04:52:29;18.27;;;11.85;;
55031;SDS011;40928;51.076;7.950;2022-08-19T04:54:56;19.05;;;11.40;;
55031;SDS011;40928;51.076;7.950;2022-08-19T04:57:22;14.07;;;10.60;;
55031;SDS011;40928;51.076;7.950;2022-08-19T04:59:48;12.60;;;10.25;;
55031;SDS011;40928;51.076;7.950;2022-08-19T05:02:13;14.73;;;10.40;;
55031;SDS011;40928;51.076;7.950;2022-08-19T05:04:39;18.05;;;11.80;;
55031;SDS011;40928;51.076;7.950;2022-08-19T05:07:05;22.20;;;12.90;;
55031;SDS011;40928;51.076;7.950;2022-08-19T05:09:32;16.45;;;11.27;;
55031;SDS011;40928;51.076;7.950;2022-08-19T05:11:59;13.98;;;9.45;;
55031;SDS011;40928;51.076;7.950;2022-08-19T05:14:25;12.02;;;8.68;;
55031;SDS011;40928;51.076;7.950;2022-08-19T05:16:50;16.80;;;10.85;;
55031;SDS011;40928;51.076;7.950;2022-08-19T05:19:16;18.27;;;10.13;;
55031;SDS011;40928;51.076;7.950;2022-08-19T05:22:00;12.23;;;8.98;;
55031;SDS011;40928;51.076;7.950;2022-08-19T05:24:44;17.35;;;9.90;;
55031;SDS011;40928;51.076;7.950;2022-08-19T05:27:09;11.55;;;8.50;;
55031;SDS011;40928;51.076;7.950;2022-08-19T05:29:35;14.98;;;9.45;;
55031;SDS011;40928;51.076;7.950;2022-08-19T05:32:01;12.68;;;9.15;;
55031;SDS011;40928;51.076;7.950;2022-08-19T05:34:30;13.95;;;9.75;;
55031;SDS011;40928;51.076;7.950;2022-08-19T05:36:56;10.35;;;7.80;;
55031;SDS011;40928;51.076;7.950;2022-08-19T05:39:26;14.85;;;10.38;;
55031;SDS011;40928;51.076;7.950;2022-08-19T05:42:00;14.15;;;9.27;;
55031;SDS011;40928;51.076;7.950;2022-08-19T05:44:29;9.55;;;8.10;;
55031;SDS011;40928;51.076;7.950;2022-08-19T05:46:57;15.98;;;10.38;;
55031;SDS011;40928;51.076;7.950;2022-08-19T05:49:24;13.02;;;9.25;;
55031;SDS011;40928;51.076;7.950;2022-08-19T05:51:51;13.35;;;9.10;;
55031;SDS011;40928;51.076;7.950;2022-08-19T05:54:19;16.65;;;7.60;;
55031;SDS011;40928;51.076;7.950;2022-08-19T05:56:45;13.40;;;10.45;;
55031;SDS011;40928;51.076;7.950;2022-08-19T05:59:13;8.75;;;6.70;;
55031;SDS011;40928;51.076;7.950;2022-08-19T06:01:41;14.60;;;10.18;;
55031;SDS011;40928;51.076;7.950;2022-08-19T06:04:10;9.70;;;7.63;;
55031;SDS011;40928;51.076;7.950;2022-08-19T06:06:37;10.18;;;7.28;;
55031;SDS011;40928;51.076;7.950;2022-08-19T06:09:04;11.27;;;8.27;;
55031;SDS011;40928;51.076;7.950;2022-08-19T06:11:41;12.38;;;8.32;;
55031;SDS011;40928;51.076;7.950;2022-08-19T06:14:09;14.00;;;7.95;;
55031;SDS011;40928;51.076;7.950;2022-08-19T06:16:37;15.20;;;9.88;;
55031;SDS011;40928;51.076;7.950;2022-08-19T06:19:06;12.52;;;7.95;;
55031;SDS011;40928;51.076;7.950;2022-08-19T06:21:35;12.43;;;7.88;;
55031;SDS011;40928;51.076;7.950;2022-08-19T06:24:04;12.48;;;8.05;;
55031;SDS011;40928;51.076;7.950;2022-08-19T06:26:32;15.85;;;9.57;;
55031;SDS011;40928;51.076;7.950;2022-08-19T06:28:59;14.70;;;9.98;;
55031;SDS011;40928;51.076;7.950;2022-08-19T06:31:26;13.05;;;8.95;;
55031;SDS011;40928;51.076;7.950;2022-08-19T06:33:53;16.38;;;10.07;;
55031;SDS011;40928;51.076;7.950;2022-08-19T06:36:27;17.77;;;9.40;;
55031;SDS011;40928;51.076;7.950;2022-08-19T06:38:57;19.35;;;9.40;;
55031;SDS011;40928;51.076;7.950;2022-08-19T06:41:24;13.15;;;9.13;;
55031;SDS011;40928;51.076;7.950;2022-08-19T06:43:51;23.65;;;12.95;;
55031;SDS011;40928;51.076;7.950;2022-08-19T06:46:17;10.68;;;7.95;;
55031;SDS011;40928;51.076;7.950;2022-08-19T06:48:45;18.80;;;8.80;;
55031;SDS011;40928;51.076;7.950;2022-08-19T06:51:12;14.45;;;6.57;;
55031;SDS011;40928;51.076;7.950;2022-08-19T06:53:47;6.85;;;5.03;;
55031;SDS011;40928;51.076;7.950;2022-08-19T06:56:15;5.30;;;4.40;;
55031;SDS011;40928;51.076;7.950;2022-08-19T06:58:46;9.70;;;6.93;;
55031;SDS011;40928;51.076;7.950;2022-08-19T07:01:13;12.30;;;8.15;;
55031;SDS011;40928;51.076;7.950;2022-08-19T07:03:39;10.50;;;6.72;;
55031;SDS011;40928;51.076;7.950;2022-08-19T07:06:09;10.48;;;6.28;;
55031;SDS011;40928;51.076;7.950;2022-08-19T07:08:38;12.65;;;6.82;;
55031;SDS011;40928;51.076;7.950;2022-08-19T07:11:08;8.30;;;5.57;;
55031;SDS011;40928;51.076;7.950;2022-08-19T07:13:36;10.88;;;5.80;;
55031;SDS011;40928;51.076;7.950;2022-08-19T07:16:12;10.50;;;6.47;;
55031;SDS011;40928;51.076;7.950;2022-08-19T07:18:39;10.65;;;6.22;;
55031;SDS011;40928;51.076;7.950;2022-08-19T07:21:07;9.32;;;7.43;;
55031;SDS011;40928;51.076;7.950;2022-08-19T07:23:35;16.52;;;7.72;;
55031;SDS011;40928;51.076;7.950;2022-08-19T07:26:05;16.55;;;8.38;;
55031;SDS011;40928;51.076;7.950;2022-08-19T07:28:32;8.13;;;5.75;;
55031;SDS011;40928;51.076;7.950;2022-08-19T07:30:58;8.95;;;6.13;;
55031;SDS011;40928;51.076;7.950;2022-08-19T07:33:23;10.88;;;6.35;;
55031;SDS011;40928;51.076;7.950;2022-08-19T07:35:48;10.90;;;6.50;;
55031;SDS011;40928;51.076;7.950;2022-08-19T07:38:15;9.82;;;6.53;;
55031;SDS011;40928;51.076;7.950;2022-08-19T07:40:41;11.93;;;8.48;;
55031;SDS011;40928;51.076;7.950;2022-08-19T07:43:08;9.73;;;7.20;;
55031;SDS011;40928;51.076;7.950;2022-08-19T07:45:34;13.00;;;9.07;;
55031;SDS011;40928;51.076;7.950;2022-08-19T07:47:59;11.00;;;8.27;;
55031;SDS011;40928;51.076;7.950;2022-08-19T07:50:26;15.10;;;9.85;;
55031;SDS011;40928;51.076;7.950;2022-08-19T07:52:51;12.82;;;9.07;;
55031;SDS011;40928;51.076;7.950;2022-08-19T07:55:19;15.93;;;9.18;;
55031;SDS011;40928;51.076;7.950;2022-08-19T07:57:46;14.65;;;9.98;;
55031;SDS011;40928;51.076;7.950;2022-08-19T08:00:11;15.35;;;9.85;;
55031;SDS011;40928;51.076;7.950;2022-08-19T08:02:37;14.13;;;8.40;;
55031;SDS011;40928;51.076;7.950;2022-08-19T08:05:04;14.40;;;10.48;;
55031;SDS011;40928;51.076;7.950;2022-08-19T08:07:48;16.67;;;11.13;;
55031;SDS011;40928;51.076;7.950;2022-08-19T08:10:32;17.98;;;11.52;;
55031;SDS011;40928;51.076;7.950;2022-08-19T08:12:58;14.60;;;10.00;;
55031;SDS011;40928;51.076;7.950;2022-08-19T08:15:24;19.80;;;12.35;;
55031;SDS011;40928;51.076;7.950;2022-08-19T08:17:50;20.70;;;14.18;;
55031;SDS011;40928;51.076;7.950;2022-08-19T08:20:15;20.73;;;13.75;;
55031;SDS011;40928;51.076;7.950;2022-08-19T08:22:45;21.67;;;15.18;;
55031;SDS011;40928;51.076;7.950;2022-08-19T08:25:29;25.30;;;17.45;;
55031;SDS011;40928;51.076;7.950;2022-08-19T08:27:56;26.00;;;17.45;;
55031;SDS011;40928;51.076;7.950;2022-08-19T08:30:25;22.15;;;15.68;;
55031;SDS011;40928;51.076;7.950;2022-08-19T08:32:52;21.95;;;15.43;;
55031;SDS011;40928;51.076;7.950;2022-08-19T08:35:20;23.00;;;14.23;;
55031;SDS011;40928;51.076;7.950;2022-08-19T08:37:54;20.08;;;14.25;;
55031;SDS011;40928;51.076;7.950;2022-08-19T08:45:53;22.83;;;16.08;;
55031;SDS011;40928;51.076;7.950;2022-08-19T08:48:25;20.58;;;13.43;;
55031;SDS011;40928;51.076;7.950;2022-08-19T08:50:59;20.50;;;13.98;;
55031;SDS011;40928;51.076;7.950;2022-08-19T08:53:28;24.58;;;15.10;;
55031;SDS011;40928;51.076;7.950;2022-08-19T08:55:56;19.17;;;13.52;;
55031;SDS011;40928;51.076;7.950;2022-08-19T08:58:27;19.02;;;13.13;;
55031;SDS011;40928;51.076;7.950;2022-08-19T09:01:07;17.67;;;13.53;;
55031;SDS011;40928;51.076;7.950;2022-08-19T09:03:36;19.60;;;15.20;;
55031;SDS011;40928;51.076;7.950;2022-08-19T09:09:18;21.00;;;16.83;;
55031;SDS011;40928;51.076;7.950;2022-08-19T09:12:17;23.25;;;15.25;;
55031;SDS011;40928;51.076;7.950;2022-08-19T09:15:07;23.75;;;14.80;;
55031;SDS011;40928;51.076;7.950;2022-08-19T09:17:36;18.15;;;13.65;;
55031;SDS011;40928;51.076;7.950;2022-08-19T09:22:40;15.90;;;13.32;;
55031;SDS011;40928;51.076;7.950;2022-08-19T09:25:10;15.43;;;11.65;;
55031;SDS011;40928;51.076;7.950;2022-08-19T09:27:38;17.02;;;11.63;;
55031;SDS011;40928;51.076;7.950;2022-08-19T09:30:05;16.13;;;11.80;;
55031;SDS011;40928;51.076;7.950;2022-08-19T09:32:32;13.73;;;11.25;;
55031;SDS011;40928;51.076;7.950;2022-08-19T09:34:58;17.88;;;11.93;;
55031;SDS011;40928;51.076;7.950;2022-08-19T09:37:25;11.98;;;9.38;;
55031;SDS011;40928;51.076;7.950;2022-08-19T09:39:51;15.02;;;9.45;;
55031;SDS011;40928;51.076;7.950;2022-08-19T09:42:17;10.68;;;8.60;;
55031;SDS011;40928;51.076;7.950;2022-08-19T09:44:43;10.80;;;9.50;;
55031;SDS011;40928;51.076;7.950;2022-08-19T09:47:10;11.88;;;9.38;;
55031;SDS011;40928;51.076;7.950;2022-08-19T09:49:37;8.63;;;7.45;;
55031;SDS011;40928;51.076;7.950;2022-08-19T09:52:04;9.52;;;6.40;;
55031;SDS011;40928;51.076;7.950;2022-08-19T09:54:32;13.50;;;6.50;;
55031;SDS011;40928;51.076;7.950;2022-08-19T09:56:59;10.75;;;6.22;;
55031;SDS011;40928;51.076;7.950;2022-08-19T09:59:28;10.13;;;6.93;;
55031;SDS011;40928;51.076;7.950;2022-08-19T10:01:54;7.22;;;5.53;;
55031;SDS011;40928;51.076;7.950;2022-08-19T10:04:20;4.18;;;3.78;;
55031;SDS011;40928;51.076;7.950;2022-08-19T10:06:47;4.80;;;3.60;;
55031;SDS011;40928;51.076;7.950;2022-08-19T10:09:14;4.93;;;3.83;;
55031;SDS011;40928;51.076;7.950;2022-08-19T10:11:41;5.22;;;3.80;;
55031;SDS011;40928;51.076;7.950;2022-08-19T10:14:08;4.45;;;3.08;;
55031;SDS011;40928;51.076;7.950;2022-08-19T10:16:35;4.82;;;4.20;;
55031;SDS011;40928;51.076;7.950;2022-08-19T10:19:02;5.05;;;3.72;;
55031;SDS011;40928;51.076;7.950;2022-08-19T10:21:29;4.28;;;3.53;;
55031;SDS011;40928;51.076;7.950;2022-08-19T10:23:58;7.43;;;3.03;;
55031;SDS011;40928;51.076;7.950;2022-08-19T10:26:29;5.25;;;3.60;;
55031;SDS011;40928;51.076;7.950;2022-08-19T10:28:56;3.58;;;3.22;;
55031;SDS011;40928;51.076;7.950;2022-08-19T10:31:29;6.22;;;3.50;;
55031;SDS011;40928;51.076;7.950;2022-08-19T10:36:24;10.88;;;4.07;;
55031;SDS011;40928;51.076;7.950;2022-08-19T10:38:59;6.72;;;3.55;;
55031;SDS011;40928;51.076;7.950;2022-08-19T10:41:27;5.47;;;3.35;;
55031;SDS011;40928;51.076;7.950;2022-08-19T10:43:57;3.75;;;3.28;;
55031;SDS011;40928;51.076;7.950;2022-08-19T10:46:25;4.65;;;3.22;;
55031;SDS011;40928;51.076;7.950;2022-08-19T10:48:52;5.18;;;3.50;;
55031;SDS011;40928;51.076;7.950;2022-08-19T10:51:18;4.97;;;3.50;;
55031;SDS011;40928;51.076;7.950;2022-08-19T10:56:28;3.30;;;2.97;;
55031;SDS011;40928;51.076;7.950;2022-08-19T10:59:13;5.10;;;3.88;;
55031;SDS011;40928;51.076;7.950;2022-08-19T11:01:42;6.10;;;3.55;;
55031;SDS011;40928;51.076;7.950;2022-08-19T11:04:10;6.35;;;3.47;;
55031;SDS011;40928;51.076;7.950;2022-08-19T11:06:41;9.95;;;3.58;;
55031;SDS011;40928;51.076;7.950;2022-08-19T11:09:08;7.75;;;3.20;;
55031;SDS011;40928;51.076;7.950;2022-08-19T11:11:36;4.88;;;2.92;;
55031;SDS011;40928;51.076;7.950;2022-08-19T11:14:05;7.63;;;3.17;;
55031;SDS011;40928;51.076;7.950;2022-08-19T11:16:33;4.20;;;2.72;;
55031;SDS011;40928;51.076;7.950;2022-08-19T11:18:59;4.00;;;3.38;;
55031;SDS011;40928;51.076;7.950;2022-08-19T11:21:26;5.15;;;3.05;;
55031;SDS011;40928;51.076;7.950;2022-08-19T11:23:57;3.92;;;3.30;;
55031;SDS011;40928;51.076;7.950;2022-08-19T11:26:25;4.57;;;3.75;;
55031;SDS011;40928;51.076;7.950;2022-08-19T11:28:51;5.72;;;3.75;;
55031;SDS011;40928;51.076;7.950;2022-08-19T11:31:20;4.90;;;3.83;;
55031;SDS011;40928;51.076;7.950;2022-08-19T11:33:48;5.97;;;3.88;;
55031;SDS011;40928;51.076;7.950;2022-08-19T11:36:18;6.40;;;3.60;;
55031;SDS011;40928;51.076;7.950;2022-08-19T11:38:48;4.32;;;3.33;;
55031;SDS011;40928;51.076;7.950;2022-08-19T11:41:14;4.35;;;3.28;;
55031;SDS011;40928;51.076;7.950;2022-08-19T11:43:42;5.22;;;3.33;;
55031;SDS011;40928;51.076;7.950;2022-08-19T11:46:11;6.97;;;4.10;;
55031;SDS011;40928;51.076;7.950;2022-08-19T11:48:39;7.35;;;4.07;;
55031;SDS011;40928;51.076;7.950;2022-08-19T11:51:06;4.60;;;3.50;;
55031;SDS011;40928;51.076;7.950;2022-08-19T11:53:34;5.32;;;4.00;;
55031;SDS011;40928;51.076;7.950;2022-08-19T11:56:01;5.57;;;4.40;;
55031;SDS011;40928;51.076;7.950;2022-08-19T11:58:28;3.90;;;3.50;;
55031;SDS011;40928;51.076;7.950;2022-08-19T12:00:54;5.45;;;3.30;;
55031;SDS011;40928;51.076;7.950;2022-08-19T12:03:20;6.40;;;3.80;;
55031;SDS011;40928;51.076;7.950;2022-08-19T12:05:46;7.47;;;3.70;;
55031;SDS011;40928;51.076;7.950;2022-08-19T12:08:13;6.47;;;3.90;;
55031;SDS011;40928;51.076;7.950;2022-08-19T12:10:39;4.35;;;3.90;;
55031;SDS011;40928;51.076;7.950;2022-08-19T12:13:07;4.07;;;3.70;;
55031;SDS011;40928;51.076;7.950;2022-08-19T12:15:37;4.20;;;3.80;;
55031;SDS011;40928;51.076;7.950;2022-08-19T12:18:08;4.47;;;3.67;;
55031;SDS011;40928;51.076;7.950;2022-08-19T12:20:35;5.43;;;4.10;;
55031;SDS011;40928;51.076;7.950;2022-08-19T12:23:03;5.05;;;4.00;;
55031;SDS011;40928;51.076;7.950;2022-08-19T12:25:29;4.13;;;3.80;;
55031;SDS011;40928;51.076;7.950;2022-08-19T12:27:56;4.93;;;3.78;;
55031;SDS011;40928;51.076;7.950;2022-08-19T12:30:22;5.32;;;4.43;;
55031;SDS011;40928;51.076;7.950;2022-08-19T12:32:47;5.65;;;4.25;;
55031;SDS011;40928;51.076;7.950;2022-08-19T12:35:13;4.80;;;4.18;;
55031;SDS011;40928;51.076;7.950;2022-08-19T12:37:39;5.72;;;4.85;;
55031;SDS011;40928;51.076;7.950;2022-08-19T12:40:06;6.68;;;5.18;;
55031;SDS011;40928;51.076;7.950;2022-08-19T12:42:33;6.45;;;4.68;;
55031;SDS011;40928;51.076;7.950;2022-08-19T12:44:59;5.47;;;4.72;;
55031;SDS011;40928;51.076;7.950;2022-08-19T12:47:25;5.35;;;4.82;;
55031;SDS011;40928;51.076;7.950;2022-08-19T12:49:51;7.07;;;5.18;;
55031;SDS011;40928;51.076;7.950;2022-08-19T12:52:17;7.82;;;4.70;;
55031;SDS011;40928;51.076;7.950;2022-08-19T12:54:46;5.30;;;4.70;;
55031;SDS011;40928;51.076;7.950;2022-08-19T12:57:11;7.07;;;5.13;;
55031;SDS011;40928;51.076;7.950;2022-08-19T12:59:37;8.65;;;5.57;;
55031;SDS011;40928;51.076;7.950;2022-08-19T13:02:07;5.90;;;5.30;;
55031;SDS011;40928;51.076;7.950;2022-08-19T13:04:33;7.20;;;5.25;;
55031;SDS011;40928;51.076;7.950;2022-08-19T13:07:06;4.90;;;4.40;;
55031;SDS011;40928;51.076;7.950;2022-08-19T13:09:33;6.82;;;5.20;;
55031;SDS011;40928;51.076;7.950;2022-08-19T13:11:59;5.80;;;4.90;;
55031;SDS011;40928;51.076;7.950;2022-08-19T13:14:27;8.00;;;4.75;;
55031;SDS011;40928;51.076;7.950;2022-08-19T13:16:55;5.75;;;5.18;;
55031;SDS011;40928;51.076;7.950;2022-08-19T13:19:20;6.60;;;5.00;;
55031;SDS011;40928;51.076;7.950;2022-08-19T13:21:51;5.57;;;4.97;;
55031;SDS011;40928;51.076;7.950;2022-08-19T13:24:19;7.60;;;5.78;;
55031;SDS011;40928;51.076;7.950;2022-08-19T13:26:45;5.35;;;4.68;;
55031;SDS011;40928;51.076;7.950;2022-08-19T13:29:10;6.85;;;5.63;;
55031;SDS011;40928;51.076;7.950;2022-08-19T13:31:54;6.65;;;5.38;;
55031;SDS011;40928;51.076;7.950;2022-08-19T13:34:38;6.45;;;4.82;;
55031;SDS011;40928;51.076;7.950;2022-08-19T13:37:04;7.10;;;4.82;;
55031;SDS011;40928;51.076;7.950;2022-08-19T13:39:31;9.15;;;6.00;;
55031;SDS011;40928;51.076;7.950;2022-08-19T13:41:58;6.50;;;5.00;;
55031;SDS011;40928;51.076;7.950;2022-08-19T13:44:25;7.60;;;5.07;;
55031;SDS011;40928;51.076;7.950;2022-08-19T13:46:51;6.18;;;4.82;;
55031;SDS011;40928;51.076;7.950;2022-08-19T13:49:18;5.63;;;4.80;;
55031;SDS011;40928;51.076;7.950;2022-08-19T13:51:45;5.18;;;4.50;;
55031;SDS011;40928;51.076;7.950;2022-08-19T13:54:11;6.35;;;4.93;;
55031;SDS011;40928;51.076;7.950;2022-08-19T13:56:41;9.60;;;4.68;;
55031;SDS011;40928;51.076;7.950;2022-08-19T13:59:08;5.88;;;5.15;;
55031;SDS011;40928;51.076;7.950;2022-08-19T14:01:34;8.43;;;5.18;;
55031;SDS011;40928;51.076;7.950;2022-08-19T14:04:00;5.32;;;4.50;;
55031;SDS011;40928;51.076;7.950;2022-08-19T14:06:27;5.22;;;4.45;;
55031;SDS011;40928;51.076;7.950;2022-08-19T14:08:52;8.20;;;5.43;;
55031;SDS011;40928;51.076;7.950;2022-08-19T14:11:18;6.97;;;4.28;;
55031;SDS011;40928;51.076;7.950;2022-08-19T14:13:43;8.45;;;4.63;;
55031;SDS011;40928;51.076;7.950;2022-08-19T14:16:11;5.10;;;3.92;;
55031;SDS011;40928;51.076;7.950;2022-08-19T14:18:38;4.78;;;3.92;;
55031;SDS011;40928;51.076;7.950;2022-08-19T14:21:04;7.25;;;4.30;;
55031;SDS011;40928;51.076;7.950;2022-08-19T14:23:30;3.92;;;3.60;;
55031;SDS011;40928;51.076;7.950;2022-08-19T14:26:04;6.03;;;3.75;;
55031;SDS011;40928;51.076;7.950;2022-08-19T14:28:34;5.22;;;3.58;;
55031;SDS011;40928;51.076;7.950;2022-08-19T14:31:00;4.93;;;3.10;;
55031;SDS011;40928;51.076;7.950;2022-08-19T14:33:26;4.97;;;3.78;;
55031;SDS011;40928;51.076;7.950;2022-08-19T14:35:51;6.85;;;3.92;;
55031;SDS011;40928;51.076;7.950;2022-08-19T14:38:17;4.63;;;4.07;;
55031;SDS011;40928;51.076;7.950;2022-08-19T14:40:43;4.82;;;4.05;;
55031;SDS011;40928;51.076;7.950;2022-08-19T14:43:11;6.70;;;4.22;;
55031;SDS011;40928;51.076;7.950;2022-08-19T14:45:37;4.40;;;3.50;;
55031;SDS011;40928;51.076;7.950;2022-08-19T14:48:04;4.22;;;3.55;;
55031;SDS011;40928;51.076;7.950;2022-08-19T14:50:31;6.75;;;4.00;;
55031;SDS011;40928;51.076;7.950;2022-08-19T14:52:58;4.95;;;3.60;;
55031;SDS011;40928;51.076;7.950;2022-08-19T14:55:26;5.35;;;3.42;;
55031;SDS011;40928;51.076;7.950;2022-08-19T14:57:51;4.22;;;3.30;;
55031;SDS011;40928;51.076;7.950;2022-08-19T15:00:17;3.80;;;3.50;;
55031;SDS011;40928;51.076;7.950;2022-08-19T15:02:43;6.97;;;3.80;;